Terminal Aerodrome Forecast
Issued by NWS Portland, ME

Home | Current Version | Previous Version | Text Only | Print | Product List | Glossary On
Versions: 1 2 3 4 5 6 7 8 9 10 11 12 13 14 15 16 17 18 19
899
FTUS41 KGYX 240804 AAA
TAFCON
TAF AMD
KCON 240804Z 2408/2506 00000KT 6SM BR SCT080
     FM240900 VRB03KT 3SM BR BKN008
     FM241300 VRB03KT 3SM -SHRA BR OVC008
     FM241900 17003KT 6SM -DZ BR OVC012
     FM250000 17003KT 5SM -DZ BR OVC015 WS015/23030KT=

USA.gov is the U.S. government's official web portal to all federal, state and local government web resources and services.